Kezdőlap
METAR-TAF:

METAR-TAF

Repülőterek :

Vlagyikavkaz, Oroszország

földrajzi szélesség: 43-12-18N, földrajzi hosszúság: 044-36-24E, magasság: 510 m

Jelenlegi meteorológiai megfigyelések

A jelentés 35 perccel ezelõtt készült, 14:30 UTC
Nyugat-északnyugati szél 4 kt, nyugati és északnyugati között változik
Hőmérséklet -3°C
Páratartalom 86%
Légköri nyomás 1018 hPa
Látótávolság 10 km, vagy több

METAR: URMO 251430Z 29002MPS 260V320 9999 NSC M03/M05 Q1018 R09/010070 NOSIG RMK QFE719/0959

Idő: 18:05 (15:05 UTC)

Előrejelzés

A jelentés 1 órával és 5 perccel ezelõtt készült, 14:00 UTC
Az előrejelzés 25-én 15 óra UTC és 25-én 24 óra UTC között érvényes
Nyugati szél 6 kt széllökések: 16 kt
Látótávolság 10 km, vagy több
Szórványos felhőzet 3000 lábon

TAF: URMO 251400Z 2515/2524 28003G08MPS 9999 SCT030

Meteorológiai megfigyelések és előrejelzések több, mint 4000 repülőtéren (METAR és TAF jelentéseket).

A térképen piros és sárga pontok jelzik az elérhető meteorológiai állomásokat.

Mozgassa az egeret a pont fölött, hogy megjelenjen az állomás neve.

Azután kattintson az időjárási megfigyelések és előrejelzések megtekintéséhez.

A térkép megváltoztatása: kattintson a fekete keresztel jelölt zöld gombra ráközelítéshez, a vonallal jelölt zöld gombra távolításhoz, vagy a zöld nyilakra a szomszédos térképek eléréséhez.


METAR-TAF: